KFXY/FXY METAR and TAF weather

Enter ICAO airport designator
Station Type Date Time Source
KFXY METAR 2019/04/25 09:55 UTC NOAA

KFXY 250955Z AUTO 28006KT 10SM OVC095 12/10 A2975 RMK AO2


Station Type Date Time Source
KFXY Decoded METAR 2019/04/25 09:55 UTC NOAA

Station name not available
Apr 25, 2019 - 05:55 AM EDT / 2019.04.25 0955 UTC
Wind: from the W (280 degrees) at 7 MPH (6 KT):0
Visibility: 10 mile(s):0
Sky conditions: overcast
Temperature: 53 F (12 C)
Dew Point: 50 F (10 C)
Relative Humidity: 87%
Pressure (altimeter): 29.75 in. Hg (1007 hPa)
ob: KFXY 250955Z AUTO 28006KT 10SM OVC095 12/10 A2975 RMK AO2
cycle: 10

Station Type Date Time Source
KFXY TAF UTC NOAA

Error!

Example: see airport list